• Join FlightAware (Why Join?)
  • Login
  • US Flag 
12:29AM EST


 

Airport Tracker/Info


-or-


 

Live Flight TrackerFlight Track Log ✈ EZY8719 ✈ 08-May-2013 ✈ EGKK / LGW - LPPT / LIS

Flight Track Log - Related Links

Times and Time Zones

All times are in EDT time to prevent confusion due to time zone crossing. See the EZY8719 flight status page for this flight to view local times or setup timezone preferences in your user account.

Time Position Orientation Groundspeed Altitude Reporting Facility
EDT Latitude Longitude Course Direction KTS MPH feet Rate Location/Type
12:21PM 50.3742 -0.8996 210° Southwest  Level Estimated
12:22PM 50.2966 -0.9692 210° Southwest  Level Estimated
12:23PM 50.2189 -1.0386 210° Southwest  Level Estimated
12:24PM 50.1412 -1.1078 210° Southwest  Level Estimated
12:25PM 50.0635 -1.1768 210° Southwest  Level Estimated
12:26PM 49.9857 -1.2456 210° Southwest  Level Estimated
12:27PM 49.9079 -1.3141 210° Southwest  Level Estimated
12:28PM 49.8300 -1.3824 210° Southwest  Level Estimated
12:29PM 49.7431 -1.4583 209° Southwest  Level Estimated
12:30PM 49.6562 -1.5339 209° Southwest  Level Estimated
12:31PM 49.5692 -1.6093 209° Southwest  Level Estimated
12:32PM 49.4822 -1.6844 209° Southwest  Level Estimated
12:33PM 49.3951 -1.7593 209° Southwest  Level Estimated
12:34PM 49.3080 -1.8338 209° Southwest  Level Estimated
12:35PM 49.2208 -1.9081 209° Southwest  Level Estimated
12:36PM 49.1336 -1.9822 209° Southwest  Level Estimated
12:37PM 49.0464 -2.0560 209° Southwest  Level Estimated
12:38PM 48.9590 -2.1295 209° Southwest  Level Estimated
12:39PM 48.8717 -2.2028 209° Southwest  Level Estimated
12:40PM 48.7843 -2.2758 209° Southwest  Level Estimated
12:41PM 48.6968 -2.3486 209° Southwest  Level Estimated
12:42PM 48.6093 -2.4211 209° Southwest  Level Estimated
12:43PM 48.5218 -2.4933 209° Southwest  Level Estimated
12:44PM 48.4342 -2.5653 209° Southwest  Level Estimated
12:45PM 48.3466 -2.6371 209° Southwest  Level Estimated
12:46PM 48.2589 -2.7086 209° Southwest  Level Estimated
12:47PM 48.1712 -2.7799 208° Southwest  Level Estimated
12:48PM 48.0835 -2.8509 208° Southwest  Level Estimated
12:49PM 47.9957 -2.9217 208° Southwest  Level Estimated
12:50PM 47.9078 -2.9922 208° Southwest  Level Estimated
12:51PM 47.8199 -3.0625 208° Southwest  Level Estimated
12:52PM 47.7320 -3.1326 208° Southwest  Level Estimated
12:53PM 47.6440 -3.2024 208° Southwest  Level Estimated
12:54PM 47.5560 -3.2720 208° Southwest  Level Estimated
12:55PM 47.4679 -3.3414 208° Southwest  Level Estimated
12:56PM 47.3798 -3.4105 208° Southwest  Level Estimated
12:57PM 47.2917 -3.4794 208° Southwest  Level Estimated
12:58PM 47.2035 -3.5481 208° Southwest  Level Estimated
12:59PM 47.1153 -3.6165 208° Southwest  Level Estimated
01:00PM 47.0270 -3.6848 208° Southwest  Level Estimated
01:01PM 46.9387 -3.7527 208° Southwest  Level Estimated
01:02PM 46.8503 -3.8205 208° Southwest  Level Estimated
01:03PM 46.7619 -3.8881 208° Southwest  Level Estimated
01:04PM 46.6735 -3.9554 208° Southwest  Level Estimated
01:05PM 46.5850 -4.0225 208° Southwest  Level Estimated
01:06PM 46.4965 -4.0894 207° Southwest  Level Estimated
01:07PM 46.4080 -4.1560 207° Southwest  Level Estimated
01:08PM 46.3194 -4.2225 207° Southwest  Level Estimated
01:09PM 46.2308 -4.2887 207° Southwest  Level Estimated
01:10PM 46.1421 -4.3547 207° Southwest  Level Estimated
01:11PM 46.0534 -4.4205 207° Southwest  Level Estimated
01:12PM 45.9647 -4.4861 207° Southwest  Level Estimated
01:13PM 45.8759 -4.5515 207° Southwest  Level Estimated
01:14PM 45.7871 -4.6167 207° Southwest  Level Estimated
01:15PM 45.6983 -4.6817 207° Southwest  Level Estimated
01:16PM 45.6094 -4.7464 207° Southwest  Level Estimated
01:17PM 45.5205 -4.8110 207° Southwest  Level Estimated
01:18PM 45.4315 -4.8754 207° Southwest  Level Estimated
01:19PM 45.3425 -4.9395 207° Southwest  Level Estimated
01:20PM 45.2535 -5.0035 207° Southwest  Level Estimated
01:21PM 45.1644 -5.0672 207° Southwest  Level Estimated
01:22PM 45.0753 -5.1308 207° Southwest  Level Estimated
01:23PM 44.9862 -5.1941 207° Southwest  Level Estimated
01:24PM 44.8970 -5.2573 207° Southwest  Level Estimated
01:25PM 44.8078 -5.3202 207° Southwest  Level Estimated
01:26PM 44.7186 -5.3830 207° Southwest  Level Estimated
01:27PM 44.6293 -5.4456 207° Southwest  Level Estimated
01:28PM 44.5400 -5.5080 206° Southwest  Level Estimated
01:29PM 44.4507 -5.5702 206° Southwest  Level Estimated
01:30PM 44.3613 -5.6322 206° Southwest  Level Estimated
01:31PM 44.2719 -5.6940 206° Southwest  Level Estimated
01:32PM 44.1825 -5.7556 206° Southwest  Level Estimated
01:33PM 44.0930 -5.8170 206° Southwest  Level Estimated
01:34PM 44.0035 -5.8783 206° Southwest  Level Estimated
01:35PM 43.9139 -5.9394 206° Southwest  Level Estimated
01:36PM 43.8244 -6.0002 206° Southwest  Level Estimated
01:37PM 43.7348 -6.0609 206° Southwest  Level Estimated
01:38PM 43.6451 -6.1215 206° Southwest  Level Estimated
01:39PM 43.5555 -6.1818 206° Southwest  Level Estimated
01:40PM 43.4658 -6.2420 206° Southwest  Level Estimated
01:41PM 43.3760 -6.3019 206° Southwest  Level Estimated
01:42PM 43.2863 -6.3618 206° Southwest  Level Estimated
01:43PM 43.1965 -6.4214 206° Southwest  Level Estimated
01:44PM 43.1067 -6.4808 206° Southwest  Level Estimated
01:45PM 43.0168 -6.5401 206° Southwest  Level Estimated
01:46PM 42.9269 -6.5992 206° Southwest  Level Estimated
01:47PM 42.8370 -6.6582 206° Southwest  Level Estimated
01:48PM 42.7471 -6.7169 206° Southwest  Level Estimated
01:49PM 42.6571 -6.7755 206° Southwest  Level Estimated
01:50PM 42.5671 -6.8339 206° Southwest  Level Estimated
01:51PM 42.4771 -6.8922 206° Southwest  Level Estimated
01:52PM 42.3870 -6.9503 205° Southwest  Level Estimated
01:53PM 42.2969 -7.0082 205° Southwest  Level Estimated
01:54PM 42.2068 -7.0660 205° Southwest  Level Estimated
01:55PM 42.1167 -7.1235 205° Southwest  Level Estimated
01:56PM 42.0265 -7.1810 205° Southwest  Level Estimated
01:57PM 41.9363 -7.2382 205° Southwest  Level Estimated
01:58PM 41.8460 -7.2953 205° Southwest  Level Estimated
01:59PM 41.7558 -7.3523 205° Southwest  Level Estimated
02:00PM 41.6655 -7.4091 205° Southwest  Level Estimated
02:01PM 41.5752 -7.4657 205° Southwest  Level Estimated
02:02PM 41.4848 -7.5222 205° Southwest  Level Estimated
02:03PM 41.3944 -7.5785 205° Southwest  Level Estimated
02:04PM 41.3040 -7.6346 205° Southwest  Level Estimated
02:05PM 41.2136 -7.6906 205° Southwest  Level Estimated
02:06PM 41.1231 -7.7464 205° Southwest  Level Estimated
02:07PM 41.0327 -7.8021 205° Southwest  Level Estimated
02:08PM 40.9422 -7.8577 205° Southwest  Level Estimated
02:09PM 40.8516 -7.9131 205° Southwest  Level Estimated
02:10PM 40.7611 -7.9683 205° Southwest  Level Estimated
02:11PM 40.6705 -8.0234 205° Southwest  Level Estimated
02:12PM 40.5798 -8.0783 205° Southwest  Level Estimated
02:13PM 40.4892 -8.1331 205° Southwest  Level Estimated
02:14PM 40.3985 -8.1877 205° Southwest  Level Estimated
02:15PM 40.3078 -8.2422 205° Southwest  Level Estimated
02:16PM 40.2171 -8.2965 205° Southwest  Level Estimated
02:17PM 40.1264 -8.3507 205° Southwest  Level Estimated
02:18PM 40.0356 -8.4048 205° Southwest  Level Estimated
02:19PM 39.9448 -8.4587 204° Southwest  Level Estimated
02:20PM 39.8540 -8.5125 204° Southwest  Level Estimated
02:21PM 39.7632 -8.5661 204° Southwest  Level Estimated
02:22PM 39.6723 -8.6196 204° Southwest  Level Estimated
02:23PM 39.5814 -8.6729 204° Southwest  Level Estimated
02:24PM 39.4905 -8.7261 204° Southwest  Level Estimated
02:25PM 39.4062 -8.7753 204° Southwest  Level Estimated
02:26PM 39.3219 -8.8244 204° Southwest  Level Estimated
02:27PM 39.2376 -8.8733 204° Southwest  Level Estimated
02:28PM 39.1533 -8.9221 204° Southwest  Level Estimated
02:29PM 39.0689 -8.9708 204° Southwest  Level Estimated
02:30PM 38.9846 -9.0194 204° Southwest  Level Estimated
02:31PM 38.9002 -9.0679 204° Southwest  Level Estimated
02:32PM 38.8158 -9.1162 204° Southwest  Level Estimated
02:33PM 38.7813 -9.1359 204° Southwest  Level Estimated
02:34PM 38.7813 -9.1359 38° Northeast  Level Estimated
02:35PM 38.7813 -9.1359 38° Northeast  Level Estimated
02:36PM 38.7813 -9.1359 38° Northeast  Level Estimated
02:37PM 38.7813 -9.1359 38° Northeast  Level Estimated
02:38PM 38.7813 -9.1359 38° Northeast  Level Estimated
02:39PM 38.7813 -9.1359 38° Northeast  Level Estimated
02:40PM 38.7813 -9.1359 38° Northeast  Level Estimated
02:41PM 38.7813 -9.1359 38° Northeast  Level Estimated
02:42PM 38.7813 -9.1359 38° Northeast  Level Estimated
02:43PM 38.7813 -9.1359 38° Northeast  Level Estimated
02:44PM 38.7813 -9.1359 38° Northeast  Level Estimated
02:45PM 38.7813 -9.1359 38° Northeast  Level Estimated
02:46PM 38.7813 -9.1359 38° Northeast  Level Estimated
02:47PM 38.7813 -9.1359 38° Northeast  Level Estimated
02:48PM 38.7813 -9.1359 38° Northeast  Level Estimated
02:49PM 38.7813 -9.1359 38° Northeast  Level Estimated
02:50PM 38.7813 -9.1359 38° Northeast  Level Estimated
02:51PM 38.7813 -9.1359 38° Northeast  Level Estimated
02:52PM 38.7813 -9.1359 38° Northeast  Level Estimated
02:53PM 38.7813 -9.1359 38° Northeast  Level Estimated
02:54PM 38.7813 -9.1359 38° Northeast  Level Estimated
02:55PM 38.7813 -9.1359 38° Northeast  Level Estimated
02:56PM 38.7813 -9.1359 38° Northeast  Level Estimated
02:57PM 38.7813 -9.1359 38° Northeast  Level Estimated